Meteorología y climatología de Navarra
Datos de la estación - Meteo Navarra

Estación de Tudela (Montes del Cierzo) GN

Altitud 314 m.


Datos desde el 15/01/2020 hasta el 16/01/2020 en horario solar
Los datos son PROVISIONALES

Anterior Página 1 de 1 Siguiente Descargar: Formato para Excel 2000 o superior   Formato csv   Formato para OpenOffice Calc
Fecha Temperatura Humedad relativa Radiación global Insolación Precipitación Vel. viento 10 m Vel. viento 10 m Dir. viento 10 m
ºC % W/m² s l/m² m/s km/h º
15/01/2020 0:00 -0.6 95 0.0 0 0.0 3.6 13.1 107
15/01/2020 0:10 -1.1 96 0.0 0 0.0 2.5 9.1 70
15/01/2020 0:20 -1.2 97 0.0 0 0.0 2.3 8.2 80
15/01/2020 0:30 -1.2 98 0.0 0 0.0 2.1 7.5 81
15/01/2020 0:40 -1.3 98 0.0 0 0.0 2.2 8.0 97
15/01/2020 0:50 -1.3 98 0.0 0 0.0 1.9 6.7 18
15/01/2020 1:00 -1.2 99 0.0 0 0.0 1.7 6.0 133
15/01/2020 1:10 -1.1 99 0.0 0 0.0 2.0 7.0 64
15/01/2020 1:20 -0.9 99 0.0 0 0.0 2.3 8.1 101
15/01/2020 1:30 -0.8 98 0.0 0 0.0 5.2 18.7 112
15/01/2020 1:40 -0.9 98 0.0 0 0.0 6.4 23.1 130
15/01/2020 1:50 0.0 97 0.0 0 0.0 7.2 25.8 140
15/01/2020 2:00 0.4 93 0.0 0 0.0 6.3 22.7 125
15/01/2020 2:10 -0.0 94 0.0 0 0.0 4.5 16.2 109
15/01/2020 2:20 -0.3 95 0.0 0 0.0 5.7 20.6 127
15/01/2020 2:30 -0.2 95 0.0 0 0.0 3.8 13.8 138
15/01/2020 2:40 0.3 94 0.0 0 0.0 4.9 17.8 139
15/01/2020 2:50 0.7 92 0.0 0 0.0 5.7 20.7 138
15/01/2020 3:00 1.3 90 0.0 0 0.0 7.2 25.8 143
15/01/2020 3:10 1.2 89 0.0 0 0.0 7.1 25.7 131
15/01/2020 3:20 0.9 90 0.0 0 0.0 6.4 23.1 134
15/01/2020 3:30 1.1 90 0.0 0 0.0 7.3 26.4 137
15/01/2020 3:40 1.3 90 0.0 0 0.0 6.9 24.9 138
15/01/2020 3:50 1.2 89 0.0 0 0.0 6.5 23.4 138
15/01/2020 4:00 1.3 89 0.0 0 0.0 6.9 24.8 141
15/01/2020 4:10 1.6 87 0.0 0 0.0 6.1 21.8 135
15/01/2020 4:20 1.4 88 0.0 0 0.0 4.8 17.4 129
15/01/2020 4:30 1.1 90 0.0 0 0.0 3.6 12.8 100
15/01/2020 4:40 0.5 91 0.0 0 0.0 2.8 10.2 98
15/01/2020 4:50 0.3 93 0.0 0 0.0 4.3 15.3 122
15/01/2020 5:00 1.4 91 0.0 0 0.0 5.5 19.9 140
15/01/2020 5:10 2.1 86 0.0 0 0.0 5.1 18.4 125
15/01/2020 5:20 2.2 85 0.0 0 0.0 4.8 17.3 115
15/01/2020 5:30 1.8 86 0.0 0 0.0 4.2 15.0 135
15/01/2020 5:40 1.3 89 0.0 0 0.0 5.7 20.4 150
15/01/2020 5:50 1.5 87 0.0 0 0.0 7.2 26.0 155
15/01/2020 6:00 1.4 87 0.0 0 0.0 7.2 25.8 157
15/01/2020 6:10 1.5 87 0.0 0 0.0 7.2 25.9 152
15/01/2020 6:20 1.7 86 0.0 0 0.0 9.0 32.5 160
15/01/2020 6:30 1.4 87 0.0 0 0.0 8.7 31.5 158
15/01/2020 6:40 1.2 88 0.0 0 0.0 7.8 28.0 159
15/01/2020 6:50 0.9 89 0.0 0 0.0 8.1 29.3 163
15/01/2020 7:00 1.4 88 0.0 0 0.0 7.6 27.3 161
15/01/2020 7:10 2.2 85 0.0 0 0.0 6.1 21.9 156
15/01/2020 7:20 2.7 82 0.0 0 0.0 5.5 19.8 152
15/01/2020 7:30 1.6 85 0.0 0 0.0 5.6 20.2 131
15/01/2020 7:40 0.8 90 0.0 0 0.0 3.9 14.1 132
15/01/2020 7:50 1.2 90 10.4 0 0.0 4.3 15.3 168
15/01/2020 8:00 2.2 86 37.4 422 0.0 7.0 25.2 154
15/01/2020 8:10 3.0 83 62.1 600 0.0 6.5 23.3 161
15/01/2020 8:20 3.4 81 88.7 600 0.0 6.2 22.4 167
15/01/2020 8:30 3.7 80 74.6 322 0.0 6.1 21.8 145
15/01/2020 8:40 3.4 81 69.5 148 0.0 3.9 14.2 111
15/01/2020 8:50 2.4 86 53.9 0 0.0 2.9 10.5 136
15/01/2020 9:00 2.6 86 49.0 0 0.0 1.9 7.0 134
15/01/2020 9:10 2.3 84 47.0 0 0.0 2.9 10.4 187
15/01/2020 9:20 1.9 87 47.4 0 0.0 1.3 4.5 193
15/01/2020 9:30 2.5 86 57.9 0 0.0 1.1 4.0 345
15/01/2020 9:40 2.6 83 73.9 0 0.0 2.0 7.1 220
15/01/2020 9:50 2.8 82 78.7 0 0.0 2.3 8.4 108
15/01/2020 10:00 2.7 83 78.7 0 0.0 2.9 10.5 135
15/01/2020 10:10 2.6 84 76.8 0 0.0 1.4 5.1 114
15/01/2020 10:20 2.8 84 85.6 0 0.0 2.6 9.2 172
15/01/2020 10:30 3.3 81 111.2 0 0.0 4.1 14.9 198
15/01/2020 10:40 3.4 81 122.0 0 0.0 1.3 4.8 270
15/01/2020 10:50 4.3 79 127.9 0 0.0 2.7 9.5 11
15/01/2020 11:00 5.3 74 137.5 0 0.0 1.8 6.4 163
15/01/2020 11:10 5.2 76 105.1 0 0.0 1.1 3.8 291
15/01/2020 11:20 5.0 76 62.3 0 0.0 1.7 6.0 127
15/01/2020 11:30 5.5 74 90.6 0 0.0 6.3 22.6 155
15/01/2020 11:40 5.9 73 178.9 0 0.0 6.2 22.3 152
15/01/2020 11:50 5.7 73 188.9 0 0.0 5.9 21.2 146
15/01/2020 12:00 5.4 74 219.0 68 0.0 7.5 27.1 160
15/01/2020 12:10 6.3 71 304.0 600 0.0 7.1 25.7 167
15/01/2020 12:20 6.6 71 289.5 402 0.0 5.5 19.7 160
15/01/2020 12:30 6.4 72 208.3 0 0.0 6.0 21.5 137
15/01/2020 12:40 6.2 73 192.1 0 0.0 6.7 23.9 147
15/01/2020 12:50 6.3 73 277.6 424 0.0 6.6 23.7 150
15/01/2020 13:00 6.3 72 171.5 0 0.0 7.5 27.0 152
15/01/2020 13:10 6.8 72 192.0 0 0.0 6.8 24.5 156
15/01/2020 13:20 7.6 69 184.3 0 0.0 6.9 24.8 173
15/01/2020 13:30 7.5 69 187.4 0 0.0 6.3 22.6 180
15/01/2020 13:40 7.5 70 202.2 20 0.0 5.8 20.9 170
15/01/2020 13:50 7.7 71 246.2 600 0.0 6.2 22.4 142
15/01/2020 14:00 7.5 73 204.5 180 0.0 5.2 18.7 141
15/01/2020 14:10 7.2 74 176.8 0 0.0 5.8 20.8 124
15/01/2020 14:20 6.8 76 290.1 506 0.0 6.9 24.8 134
15/01/2020 14:30 7.1 73 163.4 64 0.0 6.4 22.9 140
15/01/2020 14:40 7.1 74 120.5 0 0.0 6.5 23.3 127
15/01/2020 14:50 6.8 75 114.9 0 0.0 6.6 23.7 135
15/01/2020 15:00 7.1 73 113.6 0 0.0 6.4 22.9 154
15/01/2020 15:10 7.8 69 120.1 0 0.0 5.9 21.3 169
15/01/2020 15:20 8.3 68 131.0 128 0.0 3.2 11.4 167
15/01/2020 15:30 7.7 70 109.0 128 0.0 3.8 13.6 73
15/01/2020 15:40 7.2 73 112.6 302 0.0 5.2 18.8 141
15/01/2020 15:50 7.5 72 98.7 248 0.0 5.5 19.9 141
15/01/2020 16:00 7.6 72 76.3 0 0.0 4.4 15.9 151
15/01/2020 16:10 7.9 70 69.9 104 0.0 4.8 17.4 178
15/01/2020 16:20 8.1 70 52.5 0 0.0 4.2 15.2 167
15/01/2020 16:30 7.5 73 43.3 128 0.0 3.5 12.5 109
15/01/2020 16:40 7.0 75 27.5 38 0.0 2.7 9.6 118
15/01/2020 16:50 6.9 75 5.5 0 0.0 1.6 5.9 193
15/01/2020 17:00 6.9 75 0.0 0 0.0 1.5 5.5 225
15/01/2020 17:10 6.6 76 0.0 0 0.0 1.0 3.6 26
15/01/2020 17:20 6.3 77 0.0 0 0.0 1.3 4.8 127
15/01/2020 17:30 5.7 78 0.0 0 0.0 2.3 8.2 233
15/01/2020 17:40 5.4 79 0.0 0 0.0 3.5 12.5 229
15/01/2020 17:50 5.2 80 0.0 0 0.0 4.1 14.8 221
15/01/2020 18:00 4.8 81 0.0 0 0.0 3.5 12.5 226
15/01/2020 18:10 4.5 83 0.0 0 0.0 1.4 5.2 258
15/01/2020 18:20 4.0 84 0.0 0 0.0 1.6 5.7 337
15/01/2020 18:30 4.5 85 0.0 0 0.0 2.0 7.1 281
15/01/2020 18:40 3.8 83 0.0 0 0.0 1.9 6.8 259
15/01/2020 18:50 2.8 86 0.0 0 0.0 1.7 6.2 156
15/01/2020 19:00 2.7 90 0.0 0 0.0 1.8 6.3 178
15/01/2020 19:10 3.2 90 0.0 0 0.0 1.2 4.4 155
15/01/2020 19:20 2.7 88 0.0 0 0.0 2.7 9.8 136
15/01/2020 19:30 3.4 89 0.0 0 0.0 1.8 6.5 130
15/01/2020 19:40 4.1 86 0.0 0 0.0 2.7 9.8 193
15/01/2020 19:50 3.8 85 0.0 0 0.0 1.8 6.6 141
15/01/2020 20:00 3.5 87 0.0 0 0.0 1.9 7.0 108
15/01/2020 20:10 3.9 86 0.0 0 0.0 1.6 5.9 155
15/01/2020 20:20 3.7 85 0.0 0 0.0 0.4 1.3 178
15/01/2020 20:30 3.2 87 0.0 0 0.0 0.2 0.6 211
15/01/2020 20:40 3.3 90 0.0 0 0.0 0.3 1.0 58
15/01/2020 20:50 3.4 88 0.0 0 0.0 0.7 2.5 197
15/01/2020 21:00 2.6 86 0.0 0 0.0 1.0 3.6 148
15/01/2020 21:10 2.6 89 0.0 0 0.0 1.9 6.7 146
15/01/2020 21:20 3.1 88 0.0 0 0.0 3.0 10.9 124
15/01/2020 21:30 3.3 86 0.0 0 0.0 2.8 10.2 121
15/01/2020 21:40 3.3 86 0.0 0 0.0 3.4 12.4 130
15/01/2020 21:50 3.0 87 0.0 0 0.0 1.9 6.9 116
15/01/2020 22:00 3.8 87 0.0 0 0.0 1.4 5.1 132
15/01/2020 22:10 4.1 83 0.0 0 0.0 1.0 3.7 79
15/01/2020 22:20 4.1 84 0.0 0 0.0 1.9 6.9 113
15/01/2020 22:30 4.0 83 0.0 0 0.0 0.8 2.7 157
15/01/2020 22:40 3.6 84 0.0 0 0.0 1.8 6.4 109
15/01/2020 22:50 3.0 86 0.0 0 0.0 1.6 5.8 110
15/01/2020 23:00 2.7 88 0.0 0 0.0 1.8 6.3 104
15/01/2020 23:10 2.6 88 0.0 0 0.0 1.1 3.8 95
15/01/2020 23:20 3.2 89 0.0 0 0.0 5.6 20.1 140
15/01/2020 23:30 3.4 86 0.0 0 0.0 5.0 18.1 131
15/01/2020 23:40 3.5 87 0.0 0 0.0 4.9 17.5 138
15/01/2020 23:50 4.2 86 0.0 0 0.0 5.0 17.9 154
Anterior Página 1 de 1 Siguiente

NOTA: Tipo de datos según el color:
   - Valores diarios o 10 minutos correctos
   - Valores diarios calculados a partir de un número de datos 10 minutos menor que 144 y mayor que 120, o de un número de datos semihorarios menor que 48 y mayor que 40 (caso de las estaciones de INTIA y del Ministerio)
   - Valores diez minutos estimados


Contacto        Enlaces        Aviso legal